Time;durP1;ratioP1;P1;durP2;ratioP2;P2;SDS_P1;SDS_P2;PMS_P1;PMS_P2;Temp;Humidity;BMP_temperature;BMP_pressure;BME280_temperature;BME280_humidity;BME280_pressure;Samples;Min_cycle;Max_cycle;Signal;HPM_P1;HPM_P2
2023/08/26 00:01:41;;;;;;;1.10;0.47;;;16.30;99.90;;;;;;5063924;28;20073;-63
2023/08/26 00:04:07;;;;;;;1.20;0.60;;;16.20;99.90;;;;;;5062771;28;20429;-64
2023/08/26 00:06:34;;;;;;;0.30;0.20;;;16.20;99.90;;;;;;5066495;28;20043;-62
2023/08/26 00:09:00;;;;;;;0.93;0.35;;;16.10;99.90;;;;;;5067042;28;20324;-63
2023/08/26 00:11:26;;;;;;;0.82;0.32;;;16.00;99.90;;;;;;5069078;28;20094;-63
2023/08/26 00:13:52;;;;;;;0.22;0.17;;;16.00;99.90;;;;;;5065311;28;20593;-63
2023/08/26 00:16:17;;;;;;;0.47;0.20;;;15.90;99.90;;;;;;5068610;28;20044;-63
2023/08/26 00:18:43;;;;;;;0.70;0.30;;;15.90;99.90;;;;;;5064506;28;20052;-62
2023/08/26 00:21:10;;;;;;;1.48;0.60;;;15.80;99.90;;;;;;5067797;28;20037;-62
2023/08/26 00:23:36;;;;;;;1.15;0.60;;;15.80;99.90;;;;;;5068504;28;20449;-63
2023/08/26 00:26:02;;;;;;;0.52;0.40;;;15.70;99.90;;;;;;5068979;28;20146;-63
2023/08/26 00:28:28;;;;;;;0.98;0.40;;;15.70;99.90;;;;;;5068019;28;20495;-63
2023/08/26 00:31:00;;;;;;;0.95;0.38;;;15.60;99.90;;;;;;5067184;28;20039;-63
2023/08/26 00:33:29;;;;;;;0.73;0.30;;;15.60;99.90;;;;;;5067300;28;20072;-63
2023/08/26 00:35:55;;;;;;;0.70;0.40;;;15.50;99.90;;;;;;5064822;28;20486;-63
2023/08/26 00:38:20;;;;;;;0.63;0.20;;;15.50;99.90;;;;;;5064585;28;20120;-63
2023/08/26 00:40:46;;;;;;;0.60;0.30;;;15.50;99.90;;;;;;5064332;28;20571;-63
2023/08/26 00:43:12;;;;;;;0.55;0.35;;;15.50;99.90;;;;;;5067196;28;20419;-64
2023/08/26 00:45:43;;;;;;;0.70;0.50;;;15.50;99.90;;;;;;5064774;28;20042;-64
2023/08/26 00:48:11;;;;;;;0.63;0.45;;;15.50;99.90;;;;;;5061933;28;20041;-64
2023/08/26 00:50:42;;;;;;;0.75;0.47;;;15.50;99.90;;;;;;5060322;28;20094;-63
2023/08/26 00:53:09;;;;;;;2.33;0.17;;;15.50;99.90;;;;;;5066926;28;20049;-63
2023/08/26 00:55:36;;;;;;;0.45;0.30;;;15.50;99.90;;;;;;5065831;28;20037;-63
2023/08/26 00:58:02;;;;;;;0.63;0.30;;;15.50;99.90;;;;;;5064949;28;20041;-62
2023/08/26 01:00:29;;;;;;;0.52;0.30;;;15.50;99.90;;;;;;5062659;28;20119;-62
2023/08/26 01:02:55;;;;;;;0.38;0.32;;;15.50;99.90;;;;;;5065538;28;20041;-63
2023/08/26 01:05:22;;;;;;;0.90;0.50;;;15.50;99.90;;;;;;5060582;28;20452;-63
2023/08/26 01:07:48;;;;;;;0.40;0.30;;;15.60;99.90;;;;;;5065662;28;20404;-64
2023/08/26 01:10:14;;;;;;;0.20;0.15;;;15.60;99.90;;;;;;5063651;28;20524;-63
2023/08/26 01:13:01;;;;;;;0.55;0.25;;;15.60;99.90;;;;;;5063428;28;20041;-63
2023/08/26 01:15:29;;;;;;;0.65;0.20;;;15.60;99.90;;;;;;5065664;28;20044;-64
2023/08/26 01:17:56;;;;;;;0.45;0.25;;;15.60;99.90;;;;;;5065674;28;20028;-63
2023/08/26 01:20:24;;;;;;;0.20;0.10;;;15.60;99.90;;;;;;5060080;28;20369;-62
2023/08/26 01:22:53;;;;;;;0.32;0.22;;;15.60;99.90;;;;;;5063597;28;20068;-63
2023/08/26 01:25:19;;;;;;;0.50;0.20;;;15.60;99.90;;;;;;5058292;28;20054;-63
2023/08/26 01:27:44;;;;;;;0.38;0.20;;;15.60;99.90;;;;;;5065002;28;20041;-64
2023/08/26 01:30:12;;;;;;;1.02;0.40;;;15.60;99.90;;;;;;5063547;28;20074;-63
2023/08/26 01:32:58;;;;;;;1.05;0.20;;;15.60;99.90;;;;;;5063916;28;20045;-62
2023/08/26 01:35:32;;;;;;;0.30;0.20;;;15.60;99.90;;;;;;5060473;28;20091;-64
2023/08/26 01:37:59;;;;;;;0.63;0.28;;;15.60;99.90;;;;;;5066751;28;20048;-63
2023/08/26 01:40:25;;;;;;;2.10;0.40;;;15.60;99.90;;;;;;5065563;28;20121;-63
2023/08/26 01:42:52;;;;;;;0.60;0.25;;;15.50;99.90;;;;;;5064719;28;20032;-63
2023/08/26 01:45:18;;;;;;;0.20;0.13;;;15.50;99.90;;;;;;5061298;28;20045;-63
2023/08/26 01:47:44;;;;;;;1.02;0.28;;;15.40;99.90;;;;;;5067591;28;20033;-63
2023/08/26 01:50:10;;;;;;;0.43;0.25;;;15.40;99.90;;;;;;5065513;28;20093;-63
2023/08/26 01:52:36;;;;;;;1.05;0.30;;;15.40;99.90;;;;;;5062813;28;20041;-63
2023/08/26 01:55:02;;;;;;;0.28;0.10;;;15.40;99.90;;;;;;5067293;28;20040;-62
2023/08/26 01:57:28;;;;;;;0.77;0.20;;;15.40;99.90;;;;;;5069275;28;20455;-63
2023/08/26 01:59:53;;;;;;;0.28;0.10;;;15.40;99.90;;;;;;5066593;28;20111;-63
2023/08/26 02:02:20;;;;;;;0.30;0.20;;;15.30;99.90;;;;;;5068744;28;20451;-63
2023/08/26 02:04:45;;;;;;;0.45;0.10;;;15.30;99.90;;;;;;5068260;28;20068;-62
2023/08/26 02:07:12;;;;;;;0.85;0.30;;;15.30;99.90;;;;;;5067366;28;20091;-63
2023/08/26 02:09:37;;;;;;;0.32;0.17;;;15.30;99.90;;;;;;5070856;28;20123;-63
2023/08/26 02:12:03;;;;;;;0.40;0.22;;;15.30;99.90;;;;;;5067259;28;20155;-63
2023/08/26 02:14:29;;;;;;;0.52;0.20;;;15.30;99.90;;;;;;5069087;28;20096;-63
2023/08/26 02:16:55;;;;;;;0.32;0.20;;;15.20;99.90;;;;;;5064288;28;20132;-63
2023/08/26 02:19:20;;;;;;;1.27;0.50;;;15.30;99.90;;;;;;5068421;28;20033;-62
2023/08/26 02:21:46;;;;;;;0.43;0.25;;;15.20;99.90;;;;;;5067617;28;20447;-63
2023/08/26 02:24:12;;;;;;;0.30;0.20;;;15.20;99.90;;;;;;5070526;28;20044;-64
2023/08/26 02:26:37;;;;;;;0.13;0.10;;;15.20;99.90;;;;;;5063616;28;20428;-63
2023/08/26 02:29:04;;;;;;;0.50;0.10;;;15.20;99.90;;;;;;5070284;28;20116;-63
2023/08/26 02:31:29;;;;;;;0.70;0.30;;;15.20;99.90;;;;;;5068522;28;20560;-62
2023/08/26 02:33:55;;;;;;;0.40;0.13;;;15.20;99.90;;;;;;5069864;28;20033;-62
2023/08/26 02:36:21;;;;;;;1.27;0.30;;;15.20;99.90;;;;;;5068338;28;20123;-62
2023/08/26 02:38:47;;;;;;;0.40;0.20;;;15.20;99.90;;;;;;5070801;28;20117;-62
2023/08/26 02:41:12;;;;;;;2.17;0.38;;;15.20;99.90;;;;;;5068318;28;20488;-62
2023/08/26 02:43:38;;;;;;;0.63;0.20;;;15.10;99.90;;;;;;5069257;28;20044;-62
2023/08/26 02:46:04;;;;;;;0.50;0.30;;;15.10;99.90;;;;;;5064134;28;20044;-63
2023/08/26 02:48:29;;;;;;;0.50;0.20;;;15.10;99.90;;;;;;5071154;28;20071;-62
2023/08/26 02:51:00;;;;;;;0.28;0.10;;;15.00;99.90;;;;;;5067413;28;20044;-63
2023/08/26 02:53:27;;;;;;;0.20;0.20;;;15.00;99.90;;;;;;5070263;28;20045;-62
2023/08/26 02:55:53;;;;;;;0.50;0.30;;;15.00;99.90;;;;;;5068421;28;20040;-63
2023/08/26 02:58:20;;;;;;;0.70;0.43;;;14.90;99.90;;;;;;5065993;28;20320;-62
2023/08/26 03:00:46;;;;;;;0.30;0.20;;;14.90;99.90;;;;;;5068242;28;20040;-63
2023/08/26 03:03:13;;;;;;;0.32;0.13;;;14.80;99.90;;;;;;5067114;28;20044;-62
2023/08/26 03:05:38;;;;;;;0.32;0.20;;;14.80;99.90;;;;;;5067831;28;20101;-63
2023/08/26 03:08:04;;;;;;;0.43;0.13;;;14.70;99.90;;;;;;5070623;28;20127;-63
2023/08/26 03:10:31;;;;;;;0.32;0.20;;;14.70;99.90;;;;;;5067559;28;20084;-63
2023/08/26 03:12:57;;;;;;;0.50;0.20;;;14.60;99.90;;;;;;5066931;28;20393;-64
2023/08/26 03:15:27;;;;;;;0.55;0.10;;;14.60;99.90;;;;;;5069177;28;20148;-64
2023/08/26 03:17:53;;;;;;;0.22;0.20;;;14.50;99.90;;;;;;5070414;28;20036;-63
2023/08/26 03:20:19;;;;;;;0.20;0.10;;;14.40;99.90;;;;;;5068544;28;20045;-63
2023/08/26 03:22:45;;;;;;;0.28;0.20;;;14.30;99.90;;;;;;5071123;28;20036;-63
2023/08/26 03:25:12;;;;;;;0.45;0.20;;;14.30;99.90;;;;;;5069810;28;20056;-63
2023/08/26 03:27:37;;;;;;;0.47;0.20;;;14.20;99.90;;;;;;5070115;28;20052;-63
2023/08/26 03:30:04;;;;;;;0.60;0.20;;;14.20;99.90;;;;;;5066964;28;20040;-63
2023/08/26 03:32:29;;;;;;;0.20;0.10;;;14.20;99.90;;;;;;5069319;28;20111;-63
2023/08/26 03:34:55;;;;;;;0.50;0.10;;;14.10;99.90;;;;;;5068916;28;20504;-63
2023/08/26 03:37:21;;;;;;;0.30;0.13;;;14.10;99.90;;;;;;5068832;28;20032;-63
2023/08/26 03:39:46;;;;;;;0.88;0.15;;;14.00;99.90;;;;;;5067422;28;20062;-63
2023/08/26 03:42:12;;;;;;;0.10;0.10;;;13.90;99.90;;;;;;5065647;28;20115;-63
2023/08/26 03:44:38;;;;;;;0.13;0.10;;;13.90;99.90;;;;;;5067133;28;20040;-63
2023/08/26 03:47:04;;;;;;;0.15;0.05;;;13.80;99.90;;;;;;5067247;28;20059;-63
2023/08/26 03:49:30;;;;;;;0.28;0.10;;;13.80;99.90;;;;;;5069096;28;20123;-64
2023/08/26 03:51:56;;;;;;;0.40;0.20;;;13.80;99.90;;;;;;5068459;28;20341;-63
2023/08/26 03:54:21;;;;;;;0.55;0.10;;;13.80;99.90;;;;;;5068176;28;20043;-64
2023/08/26 03:56:47;;;;;;;0.40;0.10;;;13.70;99.90;;;;;;5065524;28;20043;-63
2023/08/26 03:59:13;;;;;;;0.57;0.10;;;13.80;99.90;;;;;;5068138;28;20062;-63
2023/08/26 04:01:39;;;;;;;0.30;0.10;;;13.70;99.90;;;;;;5066377;28;20105;-63
2023/08/26 04:04:04;;;;;;;0.30;0.00;;;13.70;99.90;;;;;;5062276;28;20136;-63
2023/08/26 04:06:31;;;;;;;0.00;0.00;;;13.70;99.90;;;;;;5068457;28;20079;-63
2023/08/26 04:08:57;;;;;;;0.20;0.20;;;13.70;99.90;;;;;;5068533;28;20036;-64
2023/08/26 04:11:23;;;;;;;0.03;0.03;;;13.70;99.90;;;;;;5064761;28;20392;-63
2023/08/26 04:13:49;;;;;;;0.32;0.10;;;13.70;99.90;;;;;;5065269;28;20062;-63
2023/08/26 04:16:19;;;;;;;0.20;0.10;;;13.70;99.90;;;;;;5067491;28;20044;-63
2023/08/26 04:18:45;;;;;;;0.17;0.10;;;13.60;99.90;;;;;;5066921;28;20559;-63
2023/08/26 04:21:10;;;;;;;0.75;0.15;;;13.60;99.90;;;;;;5067075;28;20128;-63
2023/08/26 04:23:36;;;;;;;0.00;0.00;;;13.60;99.90;;;;;;5068977;28;20040;-63
2023/08/26 04:26:02;;;;;;;0.40;0.20;;;13.50;99.90;;;;;;5065070;28;20036;-63
2023/08/26 04:28:29;;;;;;;0.60;0.13;;;13.50;99.90;;;;;;5068757;28;20492;-63
2023/08/26 04:30:56;;;;;;;0.38;0.10;;;13.50;99.90;;;;;;5067891;28;20036;-63
2023/08/26 04:33:21;;;;;;;0.13;0.08;;;13.50;99.90;;;;;;5068857;28;20504;-64
2023/08/26 04:35:47;;;;;;;0.10;0.10;;;13.50;99.90;;;;;;5066670;28;20118;-63
2023/08/26 04:38:13;;;;;;;0.43;0.20;;;13.50;99.90;;;;;;5068567;28;20071;-63
2023/08/26 04:40:41;;;;;;;0.30;0.17;;;13.50;99.90;;;;;;5061981;28;20029;-63
2023/08/26 04:43:10;;;;;;;0.65;0.20;;;13.50;99.90;;;;;;5064308;28;20488;-64
2023/08/26 04:45:40;;;;;;;0.20;0.13;;;13.50;99.90;;;;;;5064082;28;20040;-64
2023/08/26 04:48:07;;;;;;;0.85;0.40;;;13.50;99.90;;;;;;5064957;28;20048;-63
2023/08/26 04:50:33;;;;;;;0.10;0.10;;;13.50;99.90;;;;;;5061930;28;20052;-63
2023/08/26 04:52:58;;;;;;;2.30;0.17;;;13.60;99.90;;;;;;5067091;28;20068;-63
2023/08/26 04:55:25;;;;;;;0.40;0.20;;;13.60;99.90;;;;;;5063694;28;20102;-64
2023/08/26 04:57:51;;;;;;;0.73;0.30;;;13.70;99.90;;;;;;5055691;28;20511;-64
2023/08/26 05:00:16;;;;;;;0.50;0.30;;;13.80;99.90;;;;;;5065188;28;20040;-64
2023/08/26 05:02:43;;;;;;;0.47;0.30;;;13.80;99.90;;;;;;5060701;28;20152;-63
2023/08/26 05:05:09;;;;;;;0.98;0.20;;;13.80;99.90;;;;;;5066519;28;20509;-63
2023/08/26 05:07:35;;;;;;;0.50;0.38;;;13.80;99.90;;;;;;5064813;28;20421;-64
2023/08/26 05:10:05;;;;;;;0.20;0.20;;;13.90;99.90;;;;;;5064984;28;20062;-63
2023/08/26 05:12:31;;;;;;;0.80;0.43;;;14.00;99.90;;;;;;5062756;28;20044;-63
2023/08/26 05:14:57;;;;;;;0.60;0.10;;;14.00;99.90;;;;;;5065999;28;20044;-64
2023/08/26 05:17:22;;;;;;;0.50;0.22;;;14.10;99.90;;;;;;5065677;28;20320;-63
2023/08/26 05:19:48;;;;;;;0.10;0.10;;;14.20;99.90;;;;;;5065314;28;20042;-63
2023/08/26 05:22:14;;;;;;;0.20;0.10;;;14.20;99.90;;;;;;5064845;28;20067;-64
2023/08/26 05:24:40;;;;;;;0.28;0.20;;;14.30;99.90;;;;;;5064830;28;20078;-64
2023/08/26 05:27:06;;;;;;;0.82;0.38;;;14.30;99.90;;;;;;5061388;28;20036;-64
2023/08/26 05:29:31;;;;;;;0.43;0.10;;;14.30;99.90;;;;;;5063777;28;20488;-63
2023/08/26 05:31:57;;;;;;;0.30;0.20;;;14.40;99.90;;;;;;5066820;28;20051;-64
2023/08/26 05:34:23;;;;;;;0.35;0.20;;;14.40;99.90;;;;;;5067504;28;20547;-64
2023/08/26 05:36:49;;;;;;;0.50;0.30;;;14.50;99.90;;;;;;5069488;28;20036;-63
2023/08/26 05:39:14;;;;;;;0.10;0.08;;;14.50;99.90;;;;;;5070104;28;20541;-62
2023/08/26 05:41:40;;;;;;;0.50;0.30;;;14.50;99.90;;;;;;5067542;28;20362;-63
2023/08/26 05:44:06;;;;;;;0.38;0.22;;;14.60;99.90;;;;;;5067929;28;20044;-64
2023/08/26 05:46:32;;;;;;;1.35;0.20;;;14.60;99.90;;;;;;5068731;28;20101;-63
2023/08/26 05:48:58;;;;;;;0.98;0.20;;;14.70;99.90;;;;;;5067216;28;20115;-63
2023/08/26 05:51:24;;;;;;;0.20;0.20;;;14.70;99.90;;;;;;5070871;28;20032;-63
2023/08/26 05:53:49;;;;;;;0.88;0.50;;;14.70;99.90;;;;;;5067061;28;20044;-63
2023/08/26 05:56:15;;;;;;;0.10;0.10;;;14.80;99.90;;;;;;5069617;28;20115;-63
2023/08/26 05:58:41;;;;;;;0.10;0.10;;;14.80;99.90;;;;;;5068100;28;20029;-63
2023/08/26 06:01:06;;;;;;;0.65;0.13;;;14.80;99.90;;;;;;5067919;28;20025;-63
2023/08/26 06:03:32;;;;;;;0.43;0.30;;;14.80;99.90;;;;;;5066432;28;20056;-62
2023/08/26 06:05:58;;;;;;;0.63;0.32;;;14.80;99.90;;;;;;5051116;28;20044;-63
2023/08/26 06:08:24;;;;;;;1.35;0.38;;;14.80;99.90;;;;;;5071001;28;20128;-62
2023/08/26 06:10:54;;;;;;;0.28;0.17;;;14.90;99.90;;;;;;5065566;28;20044;-63
2023/08/26 06:13:19;;;;;;;1.05;0.40;;;14.90;99.90;;;;;;5068830;28;20080;-63
2023/08/26 06:15:45;;;;;;;0.40;0.22;;;15.00;99.90;;;;;;5066813;28;20141;-63
2023/08/26 06:18:11;;;;;;;1.45;0.55;;;15.00;99.90;;;;;;5070497;28;20551;-63
2023/08/26 06:20:36;;;;;;;0.35;0.22;;;15.10;99.90;;;;;;5067394;28;20028;-63
2023/08/26 06:23:03;;;;;;;1.15;0.75;;;15.10;99.90;;;;;;5067641;28;20374;-63
2023/08/26 06:25:29;;;;;;;0.88;0.45;;;15.20;99.90;;;;;;5069098;28;20341;-63
2023/08/26 06:27:55;;;;;;;0.80;0.40;;;15.20;99.90;;;;;;5069802;28;20070;-64
2023/08/26 06:30:22;;;;;;;0.57;0.22;;;15.30;99.90;;;;;;5068544;28;20042;-63
2023/08/26 06:32:48;;;;;;;2.85;0.57;;;15.30;99.90;;;;;;5069222;28;20060;-65
2023/08/26 06:35:13;;;;;;;1.05;0.38;;;15.30;99.90;;;;;;5066885;28;20442;-63
2023/08/26 06:37:39;;;;;;;0.40;0.30;;;15.40;99.90;;;;;;5067741;28;20044;-63
2023/08/26 06:40:05;;;;;;;0.60;0.20;;;15.40;99.90;;;;;;5068591;28;20140;-63
2023/08/26 06:42:31;;;;;;;0.82;0.55;;;15.50;99.90;;;;;;5066982;28;20514;-63
2023/08/26 06:44:58;;;;;;;0.82;0.55;;;15.50;99.90;;;;;;5068928;28;20041;-63
2023/08/26 06:47:24;;;;;;;0.80;0.60;;;15.50;99.90;;;;;;5069660;28;20564;-63
2023/08/26 06:49:50;;;;;;;0.30;0.20;;;15.50;99.90;;;;;;5066234;28;20128;-63
2023/08/26 06:52:15;;;;;;;1.02;0.60;;;15.50;99.90;;;;;;5068225;28;20430;-63
2023/08/26 06:54:41;;;;;;;1.17;0.50;;;15.50;99.90;;;;;;5066277;28;20337;-63
2023/08/26 06:57:07;;;;;;;0.73;0.68;;;15.60;99.90;;;;;;5066786;28;20044;-63
2023/08/26 06:59:32;;;;;;;1.50;0.60;;;15.60;99.90;;;;;;5067260;28;20029;-63
2023/08/26 07:01:58;;;;;;;0.65;0.45;;;15.70;99.90;;;;;;5066812;28;20472;-63
2023/08/26 07:04:24;;;;;;;1.80;0.73;;;15.70;99.90;;;;;;5067501;28;20052;-62
2023/08/26 07:06:50;;;;;;;1.02;0.55;;;15.70;99.90;;;;;;5066700;28;20048;-62
2023/08/26 07:09:16;;;;;;;0.65;0.43;;;15.70;99.90;;;;;;5067224;28;20464;-64
2023/08/26 07:11:42;;;;;;;1.92;0.60;;;15.70;99.90;;;;;;5066049;28;20120;-63
2023/08/26 07:14:08;;;;;;;1.40;0.60;;;15.70;99.90;;;;;;5067284;28;20132;-63
2023/08/26 07:16:33;;;;;;;0.93;0.65;;;15.70;99.90;;;;;;5066082;28;20049;-63
2023/08/26 07:18:59;;;;;;;1.40;0.80;;;15.70;99.90;;;;;;5068140;28;20032;-63
2023/08/26 07:21:25;;;;;;;1.20;0.80;;;15.80;99.90;;;;;;5064572;28;20520;-62
2023/08/26 07:23:51;;;;;;;1.00;0.60;;;15.90;99.90;;;;;;5068368;28;20040;-62
2023/08/26 07:26:18;;;;;;;1.58;0.70;;;16.00;99.90;;;;;;5068094;28;20094;-63
2023/08/26 07:28:45;;;;;;;2.58;0.77;;;16.10;99.90;;;;;;5059291;28;20481;-63
2023/08/26 07:31:12;;;;;;;1.27;1.00;;;16.20;99.90;;;;;;5067128;28;20052;-63
2023/08/26 07:33:37;;;;;;;1.25;0.80;;;16.30;99.90;;;;;;5066887;28;20049;-62
2023/08/26 07:36:06;;;;;;;1.60;1.02;;;16.40;99.90;;;;;;5069137;28;20043;-63
2023/08/26 07:38:32;;;;;;;6.40;0.95;;;16.40;99.90;;;;;;5063522;28;20033;-63
2023/08/26 07:40:58;;;;;;;1.95;1.20;;;16.60;99.90;;;;;;5063329;28;20090;-63
2023/08/26 07:43:24;;;;;;;2.55;1.05;;;16.70;99.90;;;;;;5057536;28;20033;-63
2023/08/26 07:45:50;;;;;;;3.13;1.00;;;16.70;99.90;;;;;;5063402;28;20028;-62
2023/08/26 07:48:16;;;;;;;2.35;0.80;;;16.80;99.90;;;;;;5065434;28;20040;-63
2023/08/26 07:50:42;;;;;;;5.53;1.00;;;16.80;99.90;;;;;;5069337;28;20067;-63
2023/08/26 07:53:08;;;;;;;2.13;0.93;;;16.90;99.90;;;;;;5068733;28;20562;-62
2023/08/26 07:55:34;;;;;;;1.48;0.80;;;17.00;99.90;;;;;;5070299;28;20400;-63
2023/08/26 07:58:00;;;;;;;0.80;0.60;;;17.10;99.90;;;;;;5070117;28;20028;-63
2023/08/26 08:00:26;;;;;;;2.05;0.77;;;17.20;99.90;;;;;;5069356;28;20029;-62
2023/08/26 08:02:52;;;;;;;1.30;0.75;;;17.30;99.90;;;;;;5067352;28;20553;-63
2023/08/26 08:05:17;;;;;;;2.05;1.02;;;17.50;99.90;;;;;;5067877;28;20052;-62
2023/08/26 08:07:43;;;;;;;1.40;0.65;;;17.60;99.90;;;;;;5066800;28;20028;-63
2023/08/26 08:10:09;;;;;;;1.17;1.00;;;17.70;99.90;;;;;;5064984;28;20087;-63
2023/08/26 08:12:35;;;;;;;1.40;0.82;;;17.80;99.90;;;;;;5067382;28;20094;-63
2023/08/26 08:15:03;;;;;;;1.10;0.65;;;17.70;99.90;;;;;;5068456;28;20063;-62
2023/08/26 08:17:31;;;;;;;1.55;0.75;;;17.70;99.90;;;;;;5067301;28;20457;-63
2023/08/26 08:19:57;;;;;;;1.48;0.70;;;17.70;99.90;;;;;;5068013;28;20044;-63
2023/08/26 08:22:36;;;;;;;1.42;0.73;;;17.90;99.90;;;;;;5068935;28;20040;-62
2023/08/26 08:25:03;;;;;;;1.15;0.70;;;18.00;99.90;;;;;;5067311;28;20113;-64
2023/08/26 08:27:30;;;;;;;0.65;0.50;;;18.00;99.90;;;;;;5069097;28;20032;-63
2023/08/26 08:29:57;;;;;;;1.75;0.82;;;18.00;99.90;;;;;;5066545;28;20036;-63
2023/08/26 08:32:23;;;;;;;1.45;0.98;;;18.10;99.90;;;;;;5066955;28;20104;-63
2023/08/26 08:34:49;;;;;;;1.85;1.25;;;18.20;99.90;;;;;;5066601;28;20040;-63
2023/08/26 08:37:15;;;;;;;0.90;0.73;;;18.40;99.90;;;;;;5065539;28;20028;-63
2023/08/26 08:39:40;;;;;;;1.08;0.63;;;18.60;99.90;;;;;;5066372;28;20036;-63
2023/08/26 08:42:09;;;;;;;1.55;0.82;;;18.70;99.90;;;;;;5064207;28;20052;-63
2023/08/26 08:44:39;;;;;;;0.95;0.60;;;18.70;99.90;;;;;;5066564;28;20393;-63
2023/08/26 08:47:05;;;;;;;0.80;0.63;;;18.60;99.90;;;;;;5068191;28;20051;-63
2023/08/26 08:49:33;;;;;;;0.73;0.60;;;18.60;99.90;;;;;;5067662;28;20048;-63
2023/08/26 08:51:59;;;;;;;0.95;0.45;;;18.80;99.90;;;;;;5065232;28;20086;-63
2023/08/26 08:54:29;;;;;;;0.93;0.55;;;19.00;99.90;;;;;;5068807;28;20392;-64
2023/08/26 08:56:56;;;;;;;0.60;0.30;;;19.10;99.90;;;;;;5068439;28;20075;-64
2023/08/26 08:59:22;;;;;;;2.13;0.80;;;19.30;99.90;;;;;;5068602;28;20033;-64
2023/08/26 09:01:48;;;;;;;0.70;0.50;;;19.40;99.90;;;;;;5069114;28;20036;-63
2023/08/26 09:04:14;;;;;;;0.75;0.40;;;19.20;99.90;;;;;;5061625;28;20472;-64
2023/08/26 09:06:40;;;;;;;0.93;0.68;;;19.20;99.90;;;;;;5066006;28;20071;-64
2023/08/26 09:09:12;;;;;;;1.05;0.50;;;19.50;99.90;;;;;;5066975;28;20136;-64
2023/08/26 09:11:38;;;;;;;1.15;0.82;;;19.50;99.90;;;;;;5068242;28;20037;-64
2023/08/26 09:14:05;;;;;;;0.75;0.57;;;19.60;99.90;;;;;;5065147;28;20049;-64
2023/08/26 09:16:39;;;;;;;2.05;0.60;;;20.00;99.90;;;;;;5065441;28;20044;-64
2023/08/26 09:19:10;;;;;;;1.15;0.60;;;20.10;99.90;;;;;;5068333;28;20408;-64
2023/08/26 09:21:46;;;;;;;0.52;0.30;;;20.60;99.90;;;;;;5065944;28;20507;-65
2023/08/26 09:24:16;;;;;;;1.17;0.55;;;20.50;99.90;;;;;;5067221;28;20051;-65
2023/08/26 09:26:43;;;;;;;0.30;0.20;;;20.30;99.90;;;;;;5064702;28;20072;-64
2023/08/26 09:29:17;;;;;;;0.30;0.22;;;20.00;99.90;;;;;;5065155;28;20135;-65
2023/08/26 09:31:50;;;;;;;1.17;0.40;;;19.70;99.90;;;;;;5066824;28;20093;-65
2023/08/26 09:34:28;;;;;;;0.60;0.40;;;19.30;99.90;;;;;;5061480;28;20349;-65
2023/08/26 09:36:55;;;;;;;1.05;0.20;;;19.20;99.90;;;;;;5068559;28;20121;-65
2023/08/26 09:39:21;;;;;;;0.93;0.20;;;19.70;99.90;;;;;;5067469;28;20043;-65
2023/08/26 09:41:47;;;;;;;0.93;0.55;;;20.40;99.90;;;;;;5067004;28;20040;-65
2023/08/26 09:44:16;;;;;;;0.65;0.40;;;21.10;99.90;;;;;;5065293;28;20044;-66
2023/08/26 09:46:42;;;;;;;0.40;0.30;;;21.40;99.90;;;;;;5066730;28;20052;-66
2023/08/26 09:49:18;;;;;;;0.85;0.25;;;21.70;99.90;;;;;;5061232;28;20152;-66
2023/08/26 09:51:49;;;;;;;1.88;0.10;;;21.90;99.90;;;;;;5066515;28;20037;-66
2023/08/26 09:54:18;;;;;;;0.20;0.13;;;22.10;99.90;;;;;;5065976;28;20040;-66
2023/08/26 09:56:46;;;;;;;0.20;0.00;;;22.30;99.90;;;;;;5067967;28;20037;-66
2023/08/26 09:59:12;;;;;;;0.30;0.20;;;22.50;99.90;;;;;;5067947;28;20032;-66
2023/08/26 10:01:39;;;;;;;0.10;0.10;;;22.60;99.90;;;;;;5067686;28;20043;-66
2023/08/26 10:04:11;;;;;;;0.13;0.10;;;22.80;99.90;;;;;;5064439;28;20040;-66
2023/08/26 10:07:06;;;;;;;0.50;0.35;;;23.00;99.90;;;;;;5066163;28;20396;-66
2023/08/26 10:09:35;;;;;;;0.38;0.00;;;23.10;99.90;;;;;;5060723;28;20052;-66
2023/08/26 10:12:05;;;;;;;0.13;0.10;;;23.00;99.90;;;;;;5065696;28;20072;-66
2023/08/26 10:14:33;;;;;;;0.20;0.10;;;23.20;99.90;;;;;;5064963;28;20056;-66
2023/08/26 10:17:02;;;;;;;0.00;0.00;;;23.60;99.90;;;;;;5069419;28;20447;-66
2023/08/26 10:19:29;;;;;;;0.10;0.00;;;23.80;99.90;;;;;;5069651;28;20510;-66
2023/08/26 10:21:56;;;;;;;0.00;0.00;;;24.20;99.90;;;;;;5057906;28;20033;-67
2023/08/26 10:24:22;;;;;;;0.20;0.00;;;24.40;99.90;;;;;;5067490;28;20039;-66
2023/08/26 10:26:48;;;;;;;0.17;0.00;;;24.50;99.90;;;;;;5065376;28;20040;-66
2023/08/26 10:29:15;;;;;;;0.17;0.00;;;24.60;99.90;;;;;;5068202;28;20283;-66
2023/08/26 10:31:43;;;;;;;0.00;0.00;;;24.70;99.90;;;;;;5066496;28;21051;-66
2023/08/26 10:34:09;;;;;;;0.00;0.00;;;24.80;99.90;;;;;;5067681;28;20040;-66
2023/08/26 10:36:39;;;;;;;0.38;0.20;;;24.90;99.90;;;;;;5067048;28;20045;-66
2023/08/26 10:39:21;;;;;;;0.20;0.00;;;24.90;99.90;;;;;;5067733;28;20106;-66
2023/08/26 10:42:13;;;;;;;0.20;0.03;;;24.50;99.90;;;;;;5068077;28;20511;-66
2023/08/26 10:44:42;;;;;;;0.47;0.00;;;23.80;99.90;;;;;;5065821;28;20063;-67
2023/08/26 10:47:08;;;;;;;0.00;0.00;;;23.50;99.90;;;;;;5065132;28;20377;-66
2023/08/26 10:49:36;;;;;;;0.00;0.00;;;23.60;99.90;;;;;;5069255;28;20056;-66
2023/08/26 10:52:19;;;;;;;0.10;0.00;;;23.80;99.90;;;;;;5067949;28;20048;-66
2023/08/26 10:54:46;;;;;;;0.38;0.00;;;23.90;99.90;;;;;;5064616;28;20302;-66
2023/08/26 10:57:12;;;;;;;0.20;0.00;;;24.00;99.90;;;;;;5067067;28;20040;-66
2023/08/26 10:59:41;;;;;;;0.38;0.10;;;23.90;99.90;;;;;;5065411;28;20555;-66
2023/08/26 11:02:08;;;;;;;0.00;0.00;;;24.10;99.90;;;;;;5068199;28;20044;-67
2023/08/26 11:04:46;;;;;;;0.00;0.00;;;24.40;99.90;;;;;;5068082;28;20038;-66
2023/08/26 11:07:16;;;;;;;0.00;0.00;;;24.60;99.90;;;;;;5068491;28;20037;-67
2023/08/26 11:09:42;;;;;;;0.00;0.00;;;24.60;99.90;;;;;;5070711;28;20044;-66
2023/08/26 11:12:28;;;;;;;0.00;0.00;;;24.60;99.90;;;;;;5065818;28;20165;-66
2023/08/26 11:15:03;;;;;;;0.00;0.00;;;24.80;99.90;;;;;;5066327;28;20044;-66
2023/08/26 11:17:29;;;;;;;0.00;0.00;;;24.80;99.90;;;;;;5065655;28;20040;-67
2023/08/26 11:19:55;;;;;;;0.00;0.00;;;24.80;99.90;;;;;;5067885;28;20039;-66
2023/08/26 11:22:29;;;;;;;0.10;0.10;;;24.80;99.90;;;;;;5068669;28;20101;-66
2023/08/26 11:24:55;;;;;;;0.00;0.00;;;24.90;99.90;;;;;;5066444;28;20373;-67
2023/08/26 11:27:20;;;;;;;0.10;0.00;;;24.60;99.90;;;;;;5067660;28;20040;-66
2023/08/26 11:29:46;;;;;;;0.05;0.03;;;24.30;99.90;;;;;;5068623;28;20035;-66
2023/08/26 11:32:12;;;;;;;0.00;0.00;;;23.90;99.90;;;;;;5062276;28;20045;-66
2023/08/26 11:34:38;;;;;;;0.05;0.00;;;23.90;99.90;;;;;;5066879;28;20125;-66
2023/08/26 11:37:05;;;;;;;0.13;0.10;;;24.20;99.90;;;;;;5066460;28;20148;-66
2023/08/26 11:39:31;;;;;;;0.00;0.00;;;24.60;99.90;;;;;;5067261;28;20044;-66
2023/08/26 11:41:57;;;;;;;0.00;0.00;;;24.80;99.90;;;;;;5065791;28;20083;-66
2023/08/26 11:44:23;;;;;;;0.00;0.00;;;24.60;99.90;;;;;;5066963;28;20044;-68
2023/08/26 11:46:50;;;;;;;0.00;0.00;;;24.90;99.90;;;;;;5063314;28;20055;-67
2023/08/26 11:49:16;;;;;;;0.10;0.00;;;24.60;99.90;;;;;;5066037;28;20484;-68
2023/08/26 11:51:43;;;;;;;2.17;0.10;;;24.10;99.90;;;;;;5066274;28;20059;-68
2023/08/26 11:54:11;;;;;;;0.08;0.00;;;23.60;99.90;;;;;;5067663;28;20045;-68
2023/08/26 11:56:37;;;;;;;0.00;0.00;;;23.30;99.90;;;;;;5046828;28;20509;-68
2023/08/26 11:59:17;;;;;;;0.52;0.00;;;23.30;99.90;;;;;;5067875;28;20117;-68
2023/08/26 12:01:42;;;;;;;0.65;0.25;;;23.20;99.90;;;;;;5065101;28;20032;-67
2023/08/26 12:04:15;;;;;;;0.10;0.10;;;23.50;99.90;;;;;;5065488;28;20086;-68
2023/08/26 12:06:42;;;;;;;0.20;0.10;;;23.80;99.90;;;;;;5065747;28;20132;-66
2023/08/26 12:09:07;;;;;;;0.10;0.00;;;23.70;99.90;;;;;;5046739;28;20468;-67
2023/08/26 12:11:37;;;;;;;0.10;0.00;;;24.00;99.90;;;;;;5068428;28;20056;-68
2023/08/26 12:14:16;;;;;;;0.10;0.00;;;24.40;99.90;;;;;;5061771;28;20049;-68
2023/08/26 12:16:41;;;;;;;0.00;0.00;;;25.00;99.90;;;;;;5062963;28;20127;-68
2023/08/26 12:19:18;;;;;;;0.00;0.00;;;24.70;99.90;;;;;;5065664;28;20128;-68
2023/08/26 12:21:50;;;;;;;0.00;0.00;;;24.40;99.90;;;;;;5067662;28;20211;-68
2023/08/26 12:24:23;;;;;;;0.20;0.10;;;24.30;99.90;;;;;;5065316;28;20070;-68
2023/08/26 12:26:49;;;;;;;0.00;0.00;;;24.20;99.90;;;;;;5069257;28;20457;-69
2023/08/26 12:29:15;;;;;;;0.00;0.00;;;24.10;99.90;;;;;;5066610;28;20041;-68
2023/08/26 12:31:43;;;;;;;0.00;0.00;;;23.90;99.90;;;;;;5066640;28;20037;-68
2023/08/26 12:34:09;;;;;;;0.00;0.00;;;24.60;99.90;;;;;;5064377;28;20078;-68
2023/08/26 12:36:34;;;;;;;0.00;0.00;;;25.30;99.90;;;;;;5066227;28;20047;-68
2023/08/26 12:39:00;;;;;;;0.60;0.03;;;25.20;99.90;;;;;;5062244;28;20041;-68
2023/08/26 12:41:26;;;;;;;0.08;0.00;;;24.90;99.90;;;;;;5069214;28;20041;-67
2023/08/26 12:43:55;;;;;;;0.00;0.00;;;24.70;99.90;;;;;;5067560;28;20396;-65
2023/08/26 12:46:21;;;;;;;0.00;0.00;;;24.80;99.90;;;;;;5065972;28;20489;-65
2023/08/26 12:48:50;;;;;;;0.35;0.05;;;24.90;99.90;;;;;;5062186;28;20036;-65